Time;durP1;ratioP1;P1;durP2;ratioP2;P2;SDS_P1;SDS_P2;PMS_P1;PMS_P2;Temp;Humidity;BMP_temperature;BMP_pressure;BME280_temperature;BME280_humidity;BME280_pressure;Samples;Min_cycle;Max_cycle;Signal;HPM_P1;HPM_P2
2023/03/01 00:01:22;;;;;;;;;;;2.50;99.90;;;;;;5102214;28;20432;-76
2023/03/01 00:03:47;;;;;;;;;;;2.50;99.90;;;;;;5101753;28;19955;-76
2023/03/01 00:06:13;;;;;;;;;;;2.50;99.90;;;;;;5111653;28;19974;-76
2023/03/01 00:08:39;;;;;;;;;;;2.50;99.90;;;;;;5108945;28;19924;-76
2023/03/01 00:11:31;;;;;;;;;;;2.50;99.90;;;;;;5094016;28;20801;-76
2023/03/01 00:13:57;;;;;;;;;;;2.50;99.90;;;;;;5101546;28;19928;-76
2023/03/01 00:16:24;;;;;;;;;;;2.40;99.90;;;;;;5103991;28;20408;-76
2023/03/01 00:18:50;;;;;;;;;;;2.40;99.90;;;;;;5110831;28;19924;-76
2023/03/01 00:21:16;;;;;;;;;;;2.40;99.90;;;;;;5111255;28;19930;-76
2023/03/01 00:23:42;;;;;;;;;;;2.40;99.90;;;;;;5108677;28;19931;-76
2023/03/01 00:26:09;;;;;;;;;;;2.30;99.90;;;;;;5102042;28;19923;-76
2023/03/01 00:28:35;;;;;;;;;;;2.30;99.90;;;;;;5112235;28;19928;-76
2023/03/01 00:31:04;;;;;;;;;;;2.30;99.90;;;;;;5111688;28;19924;-76
2023/03/01 00:33:29;;;;;;;;;;;2.20;99.90;;;;;;5099457;28;20393;-76
2023/03/01 00:35:57;;;;;;;;;;;2.20;99.90;;;;;;5098514;28;19969;-76
2023/03/01 00:38:22;;;;;;;;;;;2.20;99.90;;;;;;5097236;28;19927;-76
2023/03/01 00:40:48;;;;;;;;;;;2.20;99.90;;;;;;5111745;28;19927;-76
2023/03/01 00:43:13;;;;;;;;;;;2.10;99.90;;;;;;5111610;28;20236;-76
2023/03/01 00:45:39;;;;;;;;;;;2.10;99.90;;;;;;5111686;28;19978;-76
2023/03/01 00:48:05;;;;;;;;;;;2.10;99.90;;;;;;5110245;28;19924;-76
2023/03/01 00:50:30;;;;;;;;;;;2.10;99.90;;;;;;5111858;27;19927;-76
2023/03/01 00:52:56;;;;;;;;;;;2.00;99.90;;;;;;5104993;28;19925;-76
2023/03/01 00:55:22;;;;;;;;;;;2.00;99.90;;;;;;5103503;28;19977;-76
2023/03/01 00:57:47;;;;;;;;;;;2.00;99.90;;;;;;5110952;28;20010;-76
2023/03/01 01:00:13;;;;;;;;;;;2.00;99.90;;;;;;5110536;28;19931;-76
2023/03/01 01:02:39;;;;;;;;;;;1.90;99.90;;;;;;5110514;28;19924;-76
2023/03/01 01:05:04;;;;;;;;;;;1.90;99.90;;;;;;5111085;28;20395;-76
2023/03/01 01:07:30;;;;;;;;;;;1.90;99.90;;;;;;5110002;28;19924;-76
2023/03/01 01:09:55;;;;;;;;;;;1.80;99.90;;;;;;5111044;28;19930;-76
2023/03/01 01:12:21;;;;;;;;;;;1.90;99.90;;;;;;5111406;28;19928;-76
2023/03/01 01:14:47;;;;;;;;;;;1.80;99.90;;;;;;5092922;28;20358;-76
2023/03/01 01:17:12;;;;;;;;;;;1.80;99.90;;;;;;5110595;28;19951;-76
2023/03/01 01:19:38;;;;;;;;;;;1.80;99.90;;;;;;5109911;28;20429;-76
2023/03/01 01:22:03;;;;;;;;;;;1.80;99.90;;;;;;5109129;28;20014;-76
2023/03/01 01:24:29;;;;;;;;;;;1.80;99.90;;;;;;5097839;28;20439;-76
2023/03/01 01:26:55;;;;;;;;;;;1.70;99.90;;;;;;5105507;28;19924;-76
2023/03/01 01:29:20;;;;;;;;;;;1.70;99.90;;;;;;5102579;28;20293;-76
2023/03/01 01:31:46;;;;;;;;;;;1.70;99.90;;;;;;5110904;28;19958;-76
2023/03/01 01:34:19;;;;;;;;;;;1.70;99.90;;;;;;5109507;28;20329;-76
2023/03/01 01:36:47;;;;;;;;;;;1.60;99.90;;;;;;5079250;28;19958;-76
2023/03/01 01:39:13;;;;;;;;;;;1.60;99.90;;;;;;5109815;28;19928;-76
2023/03/01 01:41:40;;;;;;;;;;;1.60;99.90;;;;;;5109686;28;19931;-76
2023/03/01 01:44:17;;;;;;;;;;;1.60;99.90;;;;;;5109287;28;19996;-76
2023/03/01 01:46:42;;;;;;;;;;;1.50;99.90;;;;;;5100940;28;19969;-76
2023/03/01 01:49:19;;;;;;;;;;;1.50;99.90;;;;;;5092421;28;19924;-76
2023/03/01 01:51:47;;;;;;;;;;;1.50;99.90;;;;;;5110930;28;20019;-76
2023/03/01 01:54:24;;;;;;;;;;;1.40;99.90;;;;;;5109844;28;19949;-76
2023/03/01 01:56:52;;;;;;;;;;;1.40;99.90;;;;;;5109348;28;19974;-76
2023/03/01 01:59:17;;;;;;;;;;;1.40;99.90;;;;;;5089801;28;20019;-76
2023/03/01 02:01:43;;;;;;;;;;;1.40;99.90;;;;;;5090592;28;20023;-76
2023/03/01 02:04:09;;;;;;;;;;;1.30;99.90;;;;;;5107665;28;19923;-76
2023/03/01 02:06:39;;;;;;;;;;;1.30;99.90;;;;;;5109335;28;20429;-76
2023/03/01 02:09:07;;;;;;;;;;;1.30;99.90;;;;;;5108037;28;19927;-76
2023/03/01 02:11:33;;;;;;;;;;;1.30;99.90;;;;;;5110317;28;19964;-76
2023/03/01 02:13:59;;;;;;;;;;;1.20;99.90;;;;;;5108383;28;19924;-76
2023/03/01 02:16:25;;;;;;;;;;;1.30;99.90;;;;;;5108444;28;19928;-76
2023/03/01 02:18:50;;;;;;;;;;;1.20;99.90;;;;;;5108459;28;19924;-76
2023/03/01 02:21:16;;;;;;;;;;;1.20;99.90;;;;;;5108892;28;19923;-76
2023/03/01 02:23:42;;;;;;;;;;;1.20;99.90;;;;;;5108478;28;19924;-76
2023/03/01 02:26:19;;;;;;;;;;;1.10;99.90;;;;;;5108486;28;20433;-76
2023/03/01 02:28:45;;;;;;;;;;;1.10;99.90;;;;;;5096562;28;19999;-76
2023/03/01 02:33:58;;;;;;;;;;;1.10;99.90;;;;;;5108548;28;19928;-77
2023/03/01 02:36:29;;;;;;;;;;;1.10;99.90;;;;;;5096102;28;20431;-76
2023/03/01 02:38:56;;;;;;;;;;;1.10;99.90;;;;;;5110092;28;19924;-76
2023/03/01 02:41:22;;;;;;;;;;;1.10;99.90;;;;;;5096709;28;19940;-76
2023/03/01 02:43:48;;;;;;;;;;;1.00;99.90;;;;;;5106188;28;19974;-76
2023/03/01 02:46:21;;;;;;;;;;;1.00;99.90;;;;;;5094536;28;20398;-76
2023/03/01 02:48:49;;;;;;;;;;;0.90;99.90;;;;;;5114209;28;19923;-76
2023/03/01 02:51:25;;;;;;;;;;;0.90;99.90;;;;;;5108528;27;19988;-76
2023/03/01 02:54:23;;;;;;;;;;;0.90;99.90;;;;;;5108166;28;19968;-76
2023/03/01 02:56:49;;;;;;;;;;;0.80;99.90;;;;;;5078139;28;19923;-76
2023/03/01 02:59:16;;;;;;;;;;;0.80;99.90;;;;;;5112540;28;19931;-76
2023/03/01 03:01:41;;;;;;;;;;;0.80;99.90;;;;;;5112481;28;19928;-77
2023/03/01 03:04:09;;;;;;;;;;;0.70;99.90;;;;;;5085121;28;19931;-77
2023/03/01 03:06:35;;;;;;;;;;;0.70;99.90;;;;;;5092191;28;19931;-77
2023/03/01 03:09:01;;;;;;;;;;;0.70;99.90;;;;;;5099180;28;19932;-77
2023/03/01 03:11:27;;;;;;;;;;;0.60;99.90;;;;;;5097678;28;19949;-77
2023/03/01 03:13:52;;;;;;;;;;;0.60;99.90;;;;;;5103805;28;19924;-77
2023/03/01 03:16:19;;;;;;;;;;;0.60;99.90;;;;;;5106818;28;19934;-77
2023/03/01 03:18:44;;;;;;;;;;;0.60;99.90;;;;;;5113992;28;19924;-76
2023/03/01 03:21:10;;;;;;;;;;;0.60;99.90;;;;;;5112208;28;19930;-77
2023/03/01 03:23:36;;;;;;;;;;;0.60;99.90;;;;;;5098506;28;20382;-77
2023/03/01 03:26:03;;;;;;;;;;;0.50;99.90;;;;;;5112891;28;19931;-77
2023/03/01 03:28:30;;;;;;;;;;;0.50;99.90;;;;;;5111790;28;19930;-77
2023/03/01 03:30:56;;;;;;;;;;;0.50;99.90;;;;;;5094072;28;19924;-77
2023/03/01 03:33:21;;;;;;;;;;;0.50;99.90;;;;;;5092537;28;20335;-77
2023/03/01 03:35:48;;;;;;;;;;;0.40;99.90;;;;;;5096918;28;19924;-77
2023/03/01 03:38:17;;;;;;;;;;;0.40;99.90;;;;;;5094316;28;19924;-77
2023/03/01 03:40:44;;;;;;;;;;;0.40;99.90;;;;;;5111861;28;19924;-77
2023/03/01 03:43:20;;;;;;;;;;;0.40;99.90;;;;;;5113231;28;20344;-77
2023/03/01 03:45:46;;;;;;;;;;;0.40;99.90;;;;;;5112717;28;19931;-76
2023/03/01 03:48:12;;;;;;;;;;;0.40;99.90;;;;;;5107883;28;20014;-77
2023/03/01 03:50:38;;;;;;;;;;;0.40;99.90;;;;;;5103064;28;20954;-76
2023/03/01 03:53:05;;;;;;;;;;;0.40;99.90;;;;;;5112372;28;19951;-77
2023/03/01 03:55:33;;;;;;;;;;;0.40;99.90;;;;;;5113188;28;19928;-77
2023/03/01 03:58:02;;;;;;;;;;;0.40;99.90;;;;;;5112376;28;19959;-77
2023/03/01 04:00:28;;;;;;;;;;;0.40;99.90;;;;;;5112625;28;19993;-77
2023/03/01 04:02:56;;;;;;;;;;;0.40;99.90;;;;;;5111347;28;20037;-77
2023/03/01 04:05:21;;;;;;;;;;;0.40;99.90;;;;;;5105753;28;19998;-76
2023/03/01 04:07:47;;;;;;;;;;;0.30;99.90;;;;;;5079347;28;19949;-76
2023/03/01 04:10:16;;;;;;;;;;;0.30;99.90;;;;;;5097205;28;20305;-76
2023/03/01 04:12:45;;;;;;;;;;;0.30;99.90;;;;;;5111907;27;19949;-76
2023/03/01 04:15:14;;;;;;;;;;;0.20;99.90;;;;;;5108560;28;19932;-76
2023/03/01 04:17:43;;;;;;;;;;;0.20;99.90;;;;;;5100459;28;19928;-76
2023/03/01 04:20:10;;;;;;;;;;;0.20;99.90;;;;;;5111320;28;20297;-76
2023/03/01 04:22:36;;;;;;;;;;;0.10;99.90;;;;;;5110916;28;19969;-76
2023/03/01 04:25:02;;;;;;;;;;;0.10;99.90;;;;;;5096897;28;20022;-76
2023/03/01 04:27:28;;;;;;;;;;;0.10;99.90;;;;;;5097972;28;20043;-76
2023/03/01 04:29:53;;;;;;;;;;;0.10;99.90;;;;;;5111059;28;20429;-76
2023/03/01 04:32:19;;;;;;;;;;;0.10;99.90;;;;;;5110563;28;19934;-76
2023/03/01 04:34:44;;;;;;;;;;;0.00;99.90;;;;;;5098124;28;19938;-76
2023/03/01 04:37:10;;;;;;;;;;;0.00;99.90;;;;;;5110867;28;19923;-76
2023/03/01 04:39:45;;;;;;;;;;;0.00;99.90;;;;;;5098197;28;19928;-77
2023/03/01 04:42:14;;;;;;;;;;;0.00;99.90;;;;;;5092552;28;19974;-76
2023/03/01 04:44:40;;;;;;;;;;;0.00;99.90;;;;;;5102976;28;19933;-76
2023/03/01 04:47:05;;;;;;;;;;;0.00;99.90;;;;;;5105642;28;19923;-76
2023/03/01 04:49:31;;;;;;;;;;;-0.10;99.90;;;;;;5092259;28;19932;-76
2023/03/01 04:52:01;;;;;;;;;;;-0.10;99.90;;;;;;5110257;28;20011;-76
2023/03/01 04:54:27;;;;;;;;;;;-0.10;99.90;;;;;;5092931;28;20433;-76
2023/03/01 04:56:53;;;;;;;;;;;-0.10;99.90;;;;;;5094040;28;19950;-76
2023/03/01 04:59:22;;;;;;;;;;;-0.10;99.90;;;;;;5099121;28;19924;-76
2023/03/01 05:01:48;;;;;;;;;;;-0.20;99.90;;;;;;5108978;28;19950;-76
2023/03/01 05:04:13;;;;;;;;;;;-0.30;99.90;;;;;;5103389;28;19924;-76
2023/03/01 05:06:39;;;;;;;;;;;-0.30;99.90;;;;;;5105985;28;20339;-76
2023/03/01 05:09:05;;;;;;;;;;;-0.30;99.90;;;;;;5109972;28;20392;-76
2023/03/01 05:11:35;;;;;;;;;;;-0.30;99.90;;;;;;5109680;28;19924;-76
2023/03/01 05:14:07;;;;;;;;;;;-0.30;99.90;;;;;;5106333;28;20012;-76
2023/03/01 05:16:33;;;;;;;;;;;-0.40;99.90;;;;;;5098547;28;19924;-76
2023/03/01 05:18:59;;;;;;;;;;;-0.40;99.90;;;;;;5089783;28;20279;-76
2023/03/01 05:21:25;;;;;;;;;;;-0.40;99.90;;;;;;5105243;28;20000;-76
2023/03/01 05:23:50;;;;;;;;;;;-0.40;99.90;;;;;;5097304;28;19924;-76
2023/03/01 05:26:21;;;;;;;;;;;-0.40;99.90;;;;;;5110061;28;19973;-76
2023/03/01 05:28:47;;;;;;;;;;;-0.40;99.90;;;;;;5109516;28;19931;-76
2023/03/01 05:31:12;;;;;;;;;;;-0.40;99.90;;;;;;5105204;28;19924;-76
2023/03/01 05:33:38;;;;;;;;;;;-0.50;99.90;;;;;;5101652;28;19981;-76
2023/03/01 05:36:05;;;;;;;;;;;-0.50;99.90;;;;;;5109130;28;19928;-76
2023/03/01 05:38:30;;;;;;;;;;;-0.50;99.90;;;;;;5092542;28;20026;-76
2023/03/01 05:40:56;;;;;;;;;;;-0.50;99.90;;;;;;5108478;28;20109;-76
2023/03/01 05:43:21;;;;;;;;;;;-0.50;99.90;;;;;;5109263;28;19967;-76
2023/03/01 05:45:47;;;;;;;;;;;-0.50;99.90;;;;;;5108833;28;19927;-76
2023/03/01 05:48:13;;;;;;;;;;;-0.60;99.90;;;;;;5088312;28;19977;-76
2023/03/01 05:50:40;;;;;;;;;;;-0.60;99.90;;;;;;5099717;28;19932;-76
2023/03/01 05:53:16;;;;;;;;;;;-0.60;99.90;;;;;;5109314;28;20366;-76
2023/03/01 05:55:42;;;;;;;;;;;-0.60;99.90;;;;;;5110518;28;19923;-76
2023/03/01 05:58:10;;;;;;;;;;;-0.60;99.90;;;;;;5108743;28;19927;-76
2023/03/01 06:00:36;;;;;;;;;;;-0.60;99.90;;;;;;5109350;28;19924;-76
2023/03/01 06:03:01;;;;;;;;;;;-0.60;99.90;;;;;;5109645;28;19924;-76
2023/03/01 06:05:27;;;;;;;;;;;-0.60;99.90;;;;;;5096563;28;20015;-76
2023/03/01 06:07:53;;;;;;;;;;;-0.70;99.90;;;;;;5109095;28;19949;-76
2023/03/01 06:10:19;;;;;;;;;;;-0.70;99.90;;;;;;5097270;28;20325;-76
2023/03/01 06:12:45;;;;;;;;;;;-0.80;99.90;;;;;;5108119;28;19980;-76
2023/03/01 06:15:12;;;;;;;;;;;-0.80;99.90;;;;;;5107273;28;19971;-77
2023/03/01 06:17:38;;;;;;;;;;;-0.70;99.90;;;;;;5109778;28;20232;-76
2023/03/01 06:20:05;;;;;;;;;;;-0.70;99.90;;;;;;5109208;28;19930;-76
2023/03/01 06:22:30;;;;;;;;;;;-0.80;99.90;;;;;;5108515;28;19928;-77
2023/03/01 06:24:56;;;;;;;;;;;-0.70;99.90;;;;;;5109059;28;20305;-76
2023/03/01 06:27:21;;;;;;;;;;;-0.80;99.90;;;;;;5103390;28;19931;-76
2023/03/01 06:29:47;;;;;;;;;;;-0.80;99.90;;;;;;5100481;28;19923;-76
2023/03/01 06:32:12;;;;;;;;;;;-0.80;99.90;;;;;;5090810;28;19924;-76
2023/03/01 06:34:38;;;;;;;;;;;-0.80;99.90;;;;;;5109065;28;19932;-77
2023/03/01 06:37:05;;;;;;;;;;;-0.80;99.90;;;;;;5107808;28;19966;-76
2023/03/01 06:39:31;;;;;;;;;;;-0.80;99.90;;;;;;5108720;28;19928;-76
2023/03/01 06:41:56;;;;;;;;;;;-0.80;99.90;;;;;;5108037;28;19938;-76
2023/03/01 06:44:22;;;;;;;;;;;-0.70;99.90;;;;;;5106607;28;19923;-76
2023/03/01 06:46:47;;;;;;;;;;;-0.70;99.90;;;;;;5090954;28;20289;-77
2023/03/01 06:49:13;;;;;;;;;;;-0.70;99.90;;;;;;5108978;28;19924;-77
2023/03/01 06:51:38;;;;;;;;;;;-0.70;99.90;;;;;;5099108;28;19958;-76
2023/03/01 06:54:04;;;;;;;;;;;-0.60;99.90;;;;;;5097752;28;20013;-76
2023/03/01 06:56:30;;;;;;;;;;;-0.60;99.90;;;;;;5096396;28;20381;-76
2023/03/01 06:58:56;;;;;;;;;;;-0.60;99.90;;;;;;5102897;28;19923;-76
2023/03/01 07:01:21;;;;;;;;;;;-0.50;99.90;;;;;;5090840;28;19924;-76
2023/03/01 07:03:47;;;;;;;;;;;-0.50;99.90;;;;;;5102798;28;20412;-76
2023/03/01 07:06:12;;;;;;;;;;;-0.50;99.90;;;;;;5107351;28;19953;-76
2023/03/01 07:08:38;;;;;;;;;;;-0.50;99.90;;;;;;5108127;28;19954;-76
2023/03/01 07:11:04;;;;;;;;;;;-0.50;99.90;;;;;;5108918;28;19931;-76
2023/03/01 07:13:29;;;;;;;;;;;-0.40;99.90;;;;;;5108115;28;19930;-76
2023/03/01 07:15:55;;;;;;;;;;;-0.40;99.90;;;;;;5090952;28;20321;-76
2023/03/01 07:18:20;;;;;;;;;;;-0.30;99.90;;;;;;5108122;28;19967;-76
2023/03/01 07:20:46;;;;;;;;;;;-0.30;99.90;;;;;;5108462;28;19928;-76
2023/03/01 07:23:11;;;;;;;;;;;-0.30;99.90;;;;;;5100724;28;20022;-76
2023/03/01 07:25:37;;;;;;;;;;;-0.20;99.90;;;;;;5109069;28;19981;-76
2023/03/01 07:28:03;;;;;;;;;;;-0.20;99.90;;;;;;5111873;28;20425;-76
2023/03/01 07:30:28;;;;;;;;;;;-0.10;99.90;;;;;;5094869;28;19928;-76
2023/03/01 07:32:54;;;;;;;;;;;-0.10;99.90;;;;;;5111209;28;19974;-76
2023/03/01 07:35:20;;;;;;;;;;;-0.10;99.90;;;;;;5112800;28;19928;-76
2023/03/01 07:37:46;;;;;;;;;;;0.00;99.90;;;;;;5110540;27;19949;-76
2023/03/01 07:40:11;;;;;;;;;;;0.00;99.90;;;;;;5098630;28;19927;-76
2023/03/01 07:42:37;;;;;;;;;;;0.10;99.90;;;;;;5111907;28;19946;-76
2023/03/01 07:45:04;;;;;;;;;;;0.10;99.90;;;;;;5111133;28;19928;-76
2023/03/01 07:47:30;;;;;;;;;;;0.20;99.90;;;;;;5101911;28;20667;-76
2023/03/01 07:49:55;;;;;;;;;;;0.30;99.90;;;;;;5109564;28;20053;-76
2023/03/01 07:52:21;;;;;;;;;;;0.30;99.90;;;;;;5111396;28;19951;-76
2023/03/01 07:54:46;;;;;;;;;;;0.40;99.90;;;;;;5111456;28;20522;-76
2023/03/01 07:57:12;;;;;;;;;;;0.50;99.90;;;;;;5112654;28;19924;-76
2023/03/01 07:59:38;;;;;;;;;;;0.60;99.90;;;;;;5113132;28;20417;-75
2023/03/01 08:02:03;;;;;;;;;;;0.60;99.90;;;;;;5093448;28;19931;-76
2023/03/01 08:04:29;;;;;;;;;;;0.70;99.90;;;;;;5094234;28;19928;-76
2023/03/01 08:06:54;;;;;;;;;;;0.80;99.90;;;;;;5110800;28;19924;-76
2023/03/01 08:09:20;;;;;;;;;;;0.80;99.90;;;;;;5112610;28;19934;-76
2023/03/01 08:11:46;;;;;;;;;;;0.80;99.90;;;;;;5112278;28;19924;-76
2023/03/01 08:14:11;;;;;;;;;;;0.90;99.90;;;;;;5111210;28;19924;-76
2023/03/01 08:16:37;;;;;;;;;;;1.00;99.90;;;;;;5112330;28;20297;-76
2023/03/01 08:19:06;;;;;;;;;;;1.00;99.90;;;;;;5110946;28;19927;-76
2023/03/01 08:21:34;;;;;;;;;;;1.10;99.90;;;;;;5108097;28;19970;-76
2023/03/01 08:24:00;;;;;;;;;;;1.10;99.90;;;;;;5085960;28;19963;-76
2023/03/01 08:26:26;;;;;;;;;;;1.20;99.90;;;;;;5110564;28;19928;-76
2023/03/01 08:28:52;;;;;;;;;;;1.30;99.90;;;;;;5111154;28;19924;-76
2023/03/01 08:31:19;;;;;;;;;;;1.30;99.90;;;;;;5110143;28;20373;-76
2023/03/01 08:33:50;;;;;;;;;;;1.40;99.90;;;;;;5110821;28;19924;-76
2023/03/01 08:36:16;;;;;;;;;;;1.50;99.90;;;;;;5097581;28;19924;-76
2023/03/01 08:38:42;;;;;;;;;;;1.50;99.90;;;;;;5110441;28;19946;-76
2023/03/01 08:41:07;;;;;;;;;;;1.60;99.90;;;;;;5092915;28;19924;-76
2023/03/01 08:43:33;;;;;;;;;;;1.70;99.90;;;;;;5111959;28;19928;-77
2023/03/01 08:45:58;;;;;;;;;;;1.70;99.90;;;;;;5109575;28;20011;-76
2023/03/01 08:48:24;;;;;;;;;;;1.80;99.90;;;;;;5110303;28;20019;-76
2023/03/01 08:50:50;;;;;;;;;;;1.90;99.90;;;;;;5109981;28;20020;-77
2023/03/01 08:53:15;;;;;;;;;;;2.00;99.90;;;;;;5110358;28;19924;-76
2023/03/01 08:55:41;;;;;;;;;;;2.10;99.90;;;;;;5105547;28;19927;-76
2023/03/01 08:58:06;;;;;;;;;;;2.20;99.90;;;;;;5103437;28;20030;-76
2023/03/01 09:00:34;;;;;;;;;;;2.20;99.90;;;;;;5110281;28;19978;-76
2023/03/01 09:03:00;;;;;;;;;;;2.40;99.90;;;;;;5109567;28;19923;-76
2023/03/01 09:05:25;;;;;;;;;;;2.40;99.90;;;;;;5109761;28;19930;-76
2023/03/01 09:07:51;;;;;;;;;;;2.50;99.90;;;;;;5099067;28;19924;-76
2023/03/01 09:10:17;;;;;;;;;;;2.50;99.90;;;;;;5103516;28;19934;-77
2023/03/01 09:12:42;;;;;;;;;;;2.60;99.90;;;;;;5101880;28;20323;-76
2023/03/01 09:15:08;;;;;;;;;;;2.70;99.90;;;;;;5111291;28;19924;-76
2023/03/01 09:17:33;;;;;;;;;;;2.80;99.90;;;;;;5110086;28;19931;-77
2023/03/01 09:19:59;;;;;;;;;;;2.80;99.90;;;;;;5111495;28;19974;-76
2023/03/01 09:22:25;;;;;;;;;;;2.90;99.90;;;;;;5110861;28;20065;-77
2023/03/01 09:24:50;;;;;;;;;;;3.10;99.90;;;;;;5111017;28;19924;-77
2023/03/01 09:27:18;;;;;;;;;;;3.90;99.90;;;;;;5108799;28;19975;-77
2023/03/01 09:29:44;;;;;;;;;;;5.00;99.90;;;;;;5106814;28;20010;-77
2023/03/01 09:32:10;;;;;;;;;;;6.10;99.90;;;;;;5102282;28;20029;-77
2023/03/01 09:35:00;;;;;;;;;;;7.00;99.90;;;;;;5109552;28;19928;-77
2023/03/01 09:37:24;;;;;;;;;;;7.80;99.90;;;;;;5108625;28;19931;-77
2023/03/01 09:39:49;;;;;;;;;;;8.60;99.90;;;;;;5098533;28;20010;-78
2023/03/01 09:42:16;;;;;;;;;;;9.20;99.90;;;;;;5108963;28;19924;-78
2023/03/01 09:44:41;;;;;;;;;;;9.70;99.90;;;;;;5097999;28;19930;-78
2023/03/01 09:47:15;;;;;;;;;;;10.20;99.90;;;;;;5109374;28;19924;-78
2023/03/01 09:49:41;;;;;;;;;;;10.70;99.90;;;;;;5110239;28;19932;-78
2023/03/01 09:52:23;;;;;;;;;;;11.10;99.90;;;;;;5109477;28;20301;-78
2023/03/01 09:54:52;;;;;;;;;;;11.50;99.90;;;;;;5109966;28;19981;-78
2023/03/01 09:57:20;;;;;;;;;;;11.90;99.90;;;;;;5109869;28;19924;-78
2023/03/01 10:00:11;;;;;;;;;;;12.30;99.90;;;;;;5111009;28;19941;-78
2023/03/01 10:02:40;;;;;;;;;;;12.60;99.90;;;;;;5070680;28;19924;-78
2023/03/01 10:05:14;;;;;;;;;;;12.90;99.90;;;;;;5108999;28;19936;-78
2023/03/01 10:07:45;;;;;;;;;;;13.20;99.90;;;;;;5098870;28;20018;-78
2023/03/01 10:10:20;;;;;;;;;;;13.30;99.90;;;;;;5109084;28;19924;-78
2023/03/01 10:12:45;;;;;;;;;;;13.30;99.90;;;;;;5092084;28;19985;-78
2023/03/01 10:15:14;;;;;;;;;;;13.40;99.90;;;;;;5091386;28;19924;-78
2023/03/01 10:17:44;;;;;;;;;;;13.60;99.90;;;;;;5107999;28;19924;-78
2023/03/01 10:20:18;;;;;;;;;;;13.90;99.90;;;;;;5107845;28;20010;-79
2023/03/01 10:22:48;;;;;;;22.13;17.15;;;14.10;99.90;;;;;;5108842;28;19947;-78
2023/03/01 10:25:15;;;;;;;22.33;19.50;;;14.40;99.90;;;;;;5096601;28;20404;-79
2023/03/01 10:27:59;;;;;;;23.70;17.75;;;14.60;99.90;;;;;;5106510;28;20597;-78
2023/03/01 10:30:38;;;;;;;22.73;17.73;;;14.70;99.90;;;;;;5108492;28;20413;-78
2023/03/01 10:33:17;;;;;;;18.48;15.68;;;14.80;99.10;;;;;;5108156;28;20039;-78
2023/03/01 10:35:42;;;;;;;20.30;15.77;;;14.80;96.30;;;;;;5108347;28;20052;-79
2023/03/01 10:38:11;;;;;;;22.92;17.60;;;14.80;97.80;;;;;;5090958;28;20044;-79
2023/03/01 10:40:54;;;;;;;22.00;16.10;;;14.80;97.40;;;;;;5108374;28;20533;-79
2023/03/01 10:43:21;;;;;;;21.50;16.67;;;14.90;96.80;;;;;;5090975;28;20062;-76
2023/03/01 10:45:47;;;;;;;18.95;15.00;;;14.90;96.60;;;;;;5107809;28;21079;-76
2023/03/01 10:48:19;;;;;;;22.08;16.40;;;15.10;94.30;;;;;;5109525;28;20047;-76
2023/03/01 10:50:47;;;;;;;23.13;15.95;;;15.20;92.70;;;;;;5096514;28;20521;-76
2023/03/01 10:53:47;;;;;;;20.08;15.55;;;15.20;94.90;;;;;;5098377;28;20075;-76
2023/03/01 10:56:14;;;;;;;20.42;15.48;;;15.40;94.60;;;;;;5097526;28;20051;-77
2023/03/01 10:58:56;;;;;;;18.65;13.25;;;15.60;94.60;;;;;;5109182;28;20062;-76
2023/03/01 11:01:32;;;;;;;18.20;13.63;;;15.70;93.50;;;;;;5102437;28;20048;-77
2023/03/01 11:04:12;;;;;;;14.52;10.50;;;15.80;93.70;;;;;;5106879;28;20093;-77
2023/03/01 11:06:40;;;;;;;16.33;12.23;;;16.00;94.50;;;;;;5113359;28;20444;-76
2023/03/01 11:09:22;;;;;;;16.02;12.15;;;16.30;94.30;;;;;;5112927;28;20097;-77
2023/03/01 11:11:55;;;;;;;15.60;12.43;;;16.60;94.50;;;;;;5101961;28;20126;-77
2023/03/01 11:14:24;;;;;;;15.35;11.90;;;17.00;93.00;;;;;;5102921;28;20054;-77
2023/03/01 11:17:19;;;;;;;16.08;13.00;;;16.90;89.30;;;;;;5099452;28;20039;-78
2023/03/01 11:20:00;;;;;;;;;;;16.70;90.90;;;;;;5111013;28;20048;-77
2023/03/01 11:22:26;;;;;;;14.90;12.48;;;16.70;91.50;;;;;;5086459;28;20012;-77
2023/03/01 11:24:54;;;;;;;16.50;12.73;;;16.90;91.60;;;;;;5101606;28;20135;-77
2023/03/01 11:27:25;;;;;;;15.02;12.05;;;16.90;90.20;;;;;;5112484;28;20453;-78
2023/03/01 11:30:02;;;;;;;14.38;12.13;;;16.90;90.70;;;;;;5102421;28;20126;-77
2023/03/01 11:32:35;;;;;;;16.48;12.23;;;17.00;91.50;;;;;;5099848;28;20058;-77
2023/03/01 11:35:15;;;;;;;16.03;12.37;;;17.20;89.40;;;;;;5094620;28;20048;-77
2023/03/01 11:37:43;;;;;;;14.70;11.88;;;17.20;89.40;;;;;;5110715;28;20293;-77
2023/03/01 11:40:47;;;;;;;13.68;11.02;;;17.30;90.00;;;;;;5110188;28;20073;-78
2023/03/01 11:43:22;;;;;;;13.75;11.38;;;17.40;86.70;;;;;;5096488;28;20050;-77
2023/03/01 11:45:51;;;;;;;14.20;11.68;;;17.40;84.40;;;;;;5111118;28;20069;-77
2023/03/01 11:48:47;;;;;;;15.10;11.85;;;17.30;84.70;;;;;;5077234;28;20040;-77
2023/03/01 11:51:22;;;;;;;14.60;12.13;;;17.30;87.10;;;;;;5096274;28;20048;-77
2023/03/01 11:54:14;;;;;;;13.82;11.27;;;17.40;85.10;;;;;;5100784;28;20052;-77
2023/03/01 11:57:09;;;;;;;14.02;10.48;;;17.70;89.00;;;;;;5091127;28;20166;-77
2023/03/01 11:59:54;;;;;;;12.38;10.90;;;17.90;84.60;;;;;;5105312;28;20055;-77
2023/03/01 12:02:45;;;;;;;13.40;10.77;;;17.90;83.40;;;;;;5109950;28;20099;-77
2023/03/01 12:05:20;;;;;;;13.55;11.65;;;17.90;85.60;;;;;;5073560;28;20101;-77
2023/03/01 12:08:08;;;;;;;13.55;10.13;;;18.10;84.30;;;;;;5109572;28;20074;-77
2023/03/01 12:11:02;;;;;;;13.13;10.27;;;18.30;82.80;;;;;;5079817;28;20048;-77
2023/03/01 12:13:44;;;;;;;12.10;9.68;;;18.30;82.70;;;;;;5109355;28;20516;-77
2023/03/01 12:16:26;;;;;;;12.80;9.60;;;18.30;81.30;;;;;;5109335;28;20084;-77
2023/03/01 12:19:18;;;;;;;11.20;8.85;;;18.30;79.60;;;;;;5092480;28;20039;-77
2023/03/01 12:22:12;;;;;;;12.57;9.40;;;18.20;78.90;;;;;;5110227;28;20039;-77
2023/03/01 12:24:52;;;;;;;10.53;9.33;;;18.30;80.30;;;;;;5108224;28;20074;-77
2023/03/01 12:27:52;;;;;;;10.98;9.10;;;18.60;77.70;;;;;;5109318;28;20112;-77
2023/03/01 12:30:36;;;;;;;11.02;8.07;;;18.60;75.80;;;;;;5098992;28;20047;-77
2023/03/01 12:33:20;;;;;;;11.32;8.30;;;18.60;74.60;;;;;;5111483;28;20075;-77
2023/03/01 12:36:11;;;;;;;9.95;8.80;;;18.70;76.30;;;;;;5109499;28;20409;-77
2023/03/01 12:38:54;;;;;;;11.77;9.02;;;18.70;74.90;;;;;;5100958;28;20492;-77
2023/03/01 12:41:22;;;;;;;13.15;9.20;;;18.80;74.00;;;;;;5105692;28;20087;-77
2023/03/01 12:44:12;;;;;;;11.32;8.63;;;18.90;75.40;;;;;;5103440;28;20063;-77
2023/03/01 12:47:04;;;;;;;11.30;8.02;;;18.80;73.00;;;;;;5109787;28;20044;-77
2023/03/01 12:49:36;;;;;;;9.85;7.43;;;18.90;73.00;;;;;;5095902;28;20108;-77
2023/03/01 12:52:14;;;;;;;9.45;7.80;;;19.10;72.20;;;;;;5109875;28;20044;-77
2023/03/01 12:54:40;;;;;;;9.48;7.22;;;19.30;70.30;;;;;;5103034;28;20502;-77
2023/03/01 12:57:25;;;;;;;8.20;6.75;;;19.30;69.10;;;;;;5087564;28;20093;-77
2023/03/01 13:00:09;;;;;;;9.48;6.60;;;19.20;70.40;;;;;;5109615;28;20051;-77
2023/03/01 13:03:04;;;;;;;9.25;6.47;;;19.40;70.60;;;;;;5109216;28;20117;-77
2023/03/01 13:05:56;;;;;;;8.40;6.43;;;19.70;70.40;;;;;;5109315;28;20043;-76
2023/03/01 13:08:41;;;;;;;13.95;7.60;;;20.00;68.80;;;;;;5110783;28;20450;-77
2023/03/01 13:11:19;;;;;;;8.75;6.10;;;20.20;67.20;;;;;;5111051;28;20044;-76
2023/03/01 13:13:48;;;;;;;8.70;6.78;;;19.80;65.30;;;;;;5108175;28;20035;-76
2023/03/01 13:16:21;;;;;;;8.73;6.68;;;19.50;65.10;;;;;;5110187;28;20127;-76
2023/03/01 13:18:46;;;;;;;10.25;7.00;;;19.60;67.60;;;;;;5110462;28;20079;-77
2023/03/01 13:21:12;;;;;;;8.73;7.18;;;19.80;66.10;;;;;;5109222;28;20481;-76
2023/03/01 13:23:39;;;;;;;8.13;6.55;;;19.70;65.00;;;;;;5092596;28;20044;-77
2023/03/01 13:26:12;;;;;;;9.27;6.88;;;19.70;66.20;;;;;;5099752;28;20135;-76
2023/03/01 13:28:44;;;;;;;9.82;7.75;;;19.90;63.70;;;;;;5103905;28;20048;-76
2023/03/01 13:31:29;;;;;;;;;;;19.80;62.00;;;;;;5109604;28;20051;-76
2023/03/01 13:33:59;;;;;;;9.77;7.18;;;19.80;62.30;;;;;;5110463;28;19927;-76
2023/03/01 13:36:28;;;;;;;9.50;8.00;;;19.70;61.70;;;;;;5096477;28;20044;-76
2023/03/01 13:38:53;;;;;;;10.27;7.72;;;19.60;63.60;;;;;;5095598;28;20047;-76
2023/03/01 13:41:38;;;;;;;9.67;8.20;;;19.60;63.20;;;;;;5106489;28;20790;-76
2023/03/01 13:44:19;;;;;;;;;;;19.40;63.90;;;;;;5109045;28;20043;-76
2023/03/01 13:46:45;;;;;;;9.32;7.28;;;18.90;61.30;;;;;;5110028;28;20154;-76
2023/03/01 13:49:15;;;;;;;9.30;7.55;;;18.60;65.90;;;;;;5108328;28;20401;-76
2023/03/01 13:51:42;;;;;;;8.40;7.30;;;18.80;64.90;;;;;;5097485;28;20131;-76
2023/03/01 13:54:11;;;;;;;;;;;18.70;62.80;;;;;;5107362;28;20040;-76
2023/03/01 13:56:37;;;;;;;;;;;18.50;63.10;;;;;;5109499;28;19933;-76
2023/03/01 13:59:05;;;;;;;;;;;18.30;65.10;;;;;;5108727;28;20369;-76
2023/03/01 14:01:35;;;;;;;;;;;18.10;65.70;;;;;;5110788;28;20396;-76
2023/03/01 14:04:01;;;;;;;;;;;18.00;66.60;;;;;;5091385;28;20378;-76
2023/03/01 14:06:31;;;;;;;;;;;18.00;62.40;;;;;;5108355;28;20006;-76
2023/03/01 14:09:15;;;;;;;;;;;17.50;65.10;;;;;;5109627;28;19919;-75
2023/03/01 14:12:02;;;;;;;;;;;16.80;66.50;;;;;;5109477;28;19919;-76
2023/03/01 14:14:38;;;;;;;;;;;16.40;65.50;;;;;;5092075;28;20426;-76